sensor_id;sensor_type;location;lat;lon;timestamp;P1;durP1;ratioP1;P2;durP2;ratioP2
59374;SDS011;45172;55.006;73.460;2023-05-21T00:00:27;15.18;;;5.38;;
59374;SDS011;45172;55.006;73.460;2023-05-21T00:02:53;22.67;;;9.40;;
59374;SDS011;45172;55.006;73.460;2023-05-21T00:05:19;16.45;;;5.25;;
59374;SDS011;45172;55.006;73.460;2023-05-21T00:07:46;14.48;;;5.25;;
59374;SDS011;45172;55.006;73.460;2023-05-21T00:10:12;13.18;;;5.35;;
59374;SDS011;45172;55.006;73.460;2023-05-21T00:12:39;17.17;;;5.53;;
59374;SDS011;45172;55.006;73.460;2023-05-21T00:15:06;27.20;;;11.05;;
59374;SDS011;45172;55.006;73.460;2023-05-21T00:17:33;19.55;;;6.22;;
59374;SDS011;45172;55.006;73.460;2023-05-21T00:20:01;25.08;;;6.35;;
59374;SDS011;45172;55.006;73.460;2023-05-21T00:22:30;11.65;;;5.72;;
59374;SDS011;45172;55.006;73.460;2023-05-21T00:24:58;16.88;;;8.82;;
59374;SDS011;45172;55.006;73.460;2023-05-21T00:27:24;14.15;;;5.97;;
59374;SDS011;45172;55.006;73.460;2023-05-21T00:29:50;9.90;;;5.35;;
59374;SDS011;45172;55.006;73.460;2023-05-21T00:32:16;15.35;;;8.07;;
59374;SDS011;45172;55.006;73.460;2023-05-21T00:34:42;19.25;;;7.78;;
59374;SDS011;45172;55.006;73.460;2023-05-21T00:37:08;15.63;;;7.35;;
59374;SDS011;45172;55.006;73.460;2023-05-21T00:39:34;11.98;;;6.78;;
59374;SDS011;45172;55.006;73.460;2023-05-21T00:42:01;18.77;;;7.05;;
59374;SDS011;45172;55.006;73.460;2023-05-21T00:44:28;21.92;;;8.25;;
59374;SDS011;45172;55.006;73.460;2023-05-21T00:47:01;19.08;;;8.02;;
59374;SDS011;45172;55.006;73.460;2023-05-21T00:49:28;13.95;;;7.07;;
59374;SDS011;45172;55.006;73.460;2023-05-21T00:51:55;19.95;;;7.45;;
59374;SDS011;45172;55.006;73.460;2023-05-21T00:54:22;17.45;;;6.50;;
59374;SDS011;45172;55.006;73.460;2023-05-21T00:56:48;15.38;;;6.68;;
59374;SDS011;45172;55.006;73.460;2023-05-21T00:59:16;11.57;;;6.72;;
59374;SDS011;45172;55.006;73.460;2023-05-21T01:01:43;13.05;;;7.00;;
59374;SDS011;45172;55.006;73.460;2023-05-21T01:04:10;13.50;;;6.75;;
59374;SDS011;45172;55.006;73.460;2023-05-21T01:06:37;14.23;;;6.72;;
59374;SDS011;45172;55.006;73.460;2023-05-21T01:09:03;18.10;;;6.78;;
59374;SDS011;45172;55.006;73.460;2023-05-21T01:11:42;14.25;;;6.60;;
59374;SDS011;45172;55.006;73.460;2023-05-21T01:14:12;14.20;;;6.35;;
59374;SDS011;45172;55.006;73.460;2023-05-21T01:16:41;15.52;;;6.35;;
59374;SDS011;45172;55.006;73.460;2023-05-21T01:19:15;16.85;;;6.63;;
59374;SDS011;45172;55.006;73.460;2023-05-21T01:21:48;16.13;;;6.43;;
59374;SDS011;45172;55.006;73.460;2023-05-21T01:26:43;19.67;;;7.00;;
59374;SDS011;45172;55.006;73.460;2023-05-21T01:29:11;16.60;;;6.90;;
59374;SDS011;45172;55.006;73.460;2023-05-21T01:31:47;18.25;;;6.72;;
59374;SDS011;45172;55.006;73.460;2023-05-21T01:37:30;17.90;;;6.20;;
59374;SDS011;45172;55.006;73.460;2023-05-21T01:40:04;21.00;;;6.78;;
59374;SDS011;45172;55.006;73.460;2023-05-21T01:42:42;17.27;;;6.53;;
59374;SDS011;45172;55.006;73.460;2023-05-21T01:45:11;18.02;;;6.85;;
59374;SDS011;45172;55.006;73.460;2023-05-21T01:47:40;11.30;;;5.82;;
59374;SDS011;45172;55.006;73.460;2023-05-21T01:50:13;13.50;;;6.50;;
59374;SDS011;45172;55.006;73.460;2023-05-21T01:52:50;21.42;;;7.05;;
59374;SDS011;45172;55.006;73.460;2023-05-21T01:55:19;15.25;;;6.78;;
59374;SDS011;45172;55.006;73.460;2023-05-21T01:57:52;13.73;;;6.50;;
59374;SDS011;45172;55.006;73.460;2023-05-21T02:00:19;18.67;;;7.75;;
59374;SDS011;45172;55.006;73.460;2023-05-21T02:02:49;14.82;;;6.65;;
59374;SDS011;45172;55.006;73.460;2023-05-21T02:05:16;10.15;;;6.63;;
59374;SDS011;45172;55.006;73.460;2023-05-21T02:07:43;12.55;;;6.80;;
59374;SDS011;45172;55.006;73.460;2023-05-21T02:10:10;11.90;;;7.85;;
59374;SDS011;45172;55.006;73.460;2023-05-21T02:12:37;16.05;;;7.07;;
59374;SDS011;45172;55.006;73.460;2023-05-21T02:15:03;17.65;;;6.88;;
59374;SDS011;45172;55.006;73.460;2023-05-21T02:17:31;14.27;;;7.30;;
59374;SDS011;45172;55.006;73.460;2023-05-21T02:19:59;11.70;;;7.15;;
59374;SDS011;45172;55.006;73.460;2023-05-21T02:22:38;17.33;;;7.10;;
59374;SDS011;45172;55.006;73.460;2023-05-21T02:25:11;10.73;;;6.78;;
59374;SDS011;45172;55.006;73.460;2023-05-21T02:27:39;15.77;;;7.72;;
59374;SDS011;45172;55.006;73.460;2023-05-21T02:30:09;16.85;;;8.45;;
59374;SDS011;45172;55.006;73.460;2023-05-21T02:32:37;16.35;;;7.20;;
59374;SDS011;45172;55.006;73.460;2023-05-21T02:35:08;13.68;;;6.78;;
59374;SDS011;45172;55.006;73.460;2023-05-21T02:37:36;15.52;;;7.63;;
59374;SDS011;45172;55.006;73.460;2023-05-21T02:40:02;14.32;;;7.10;;
59374;SDS011;45172;55.006;73.460;2023-05-21T02:42:30;13.52;;;6.53;;
59374;SDS011;45172;55.006;73.460;2023-05-21T02:44:56;16.02;;;7.75;;
59374;SDS011;45172;55.006;73.460;2023-05-21T02:47:23;13.40;;;7.40;;
59374;SDS011;45172;55.006;73.460;2023-05-21T02:49:50;15.57;;;8.00;;
59374;SDS011;45172;55.006;73.460;2023-05-21T02:52:17;12.60;;;7.22;;
59374;SDS011;45172;55.006;73.460;2023-05-21T02:54:45;19.00;;;6.68;;
59374;SDS011;45172;55.006;73.460;2023-05-21T02:57:13;17.45;;;6.85;;
59374;SDS011;45172;55.006;73.460;2023-05-21T02:59:39;14.52;;;6.82;;
59374;SDS011;45172;55.006;73.460;2023-05-21T03:02:05;17.20;;;6.32;;
59374;SDS011;45172;55.006;73.460;2023-05-21T03:04:33;12.32;;;6.20;;
59374;SDS011;45172;55.006;73.460;2023-05-21T03:07:05;12.98;;;5.60;;
59374;SDS011;45172;55.006;73.460;2023-05-21T03:09:31;10.48;;;5.40;;
59374;SDS011;45172;55.006;73.460;2023-05-21T03:11:57;18.13;;;5.53;;
59374;SDS011;45172;55.006;73.460;2023-05-21T03:14:23;9.20;;;7.60;;
59374;SDS011;45172;55.006;73.460;2023-05-21T03:16:49;17.95;;;5.97;;
59374;SDS011;45172;55.006;73.460;2023-05-21T03:19:15;12.80;;;5.43;;
59374;SDS011;45172;55.006;73.460;2023-05-21T03:21:41;13.48;;;5.10;;
59374;SDS011;45172;55.006;73.460;2023-05-21T03:24:07;9.30;;;5.28;;
59374;SDS011;45172;55.006;73.460;2023-05-21T03:26:34;12.75;;;5.40;;
59374;SDS011;45172;55.006;73.460;2023-05-21T03:29:00;14.40;;;5.90;;
59374;SDS011;45172;55.006;73.460;2023-05-21T03:31:26;9.18;;;5.47;;
59374;SDS011;45172;55.006;73.460;2023-05-21T03:33:52;9.43;;;4.95;;
59374;SDS011;45172;55.006;73.460;2023-05-21T03:36:18;7.05;;;4.47;;
59374;SDS011;45172;55.006;73.460;2023-05-21T03:38:45;8.27;;;5.47;;
59374;SDS011;45172;55.006;73.460;2023-05-21T03:41:11;9.13;;;5.50;;
59374;SDS011;45172;55.006;73.460;2023-05-21T03:43:37;7.70;;;4.65;;
59374;SDS011;45172;55.006;73.460;2023-05-21T03:46:03;11.32;;;4.40;;
59374;SDS011;45172;55.006;73.460;2023-05-21T03:48:30;7.05;;;4.07;;
59374;SDS011;45172;55.006;73.460;2023-05-21T03:50:56;15.70;;;4.35;;
59374;SDS011;45172;55.006;73.460;2023-05-21T03:53:22;11.43;;;2.88;;
59374;SDS011;45172;55.006;73.460;2023-05-21T03:55:48;7.40;;;2.92;;
59374;SDS011;45172;55.006;73.460;2023-05-21T03:58:22;8.02;;;2.53;;
59374;SDS011;45172;55.006;73.460;2023-05-21T04:00:49;5.60;;;3.17;;
59374;SDS011;45172;55.006;73.460;2023-05-21T04:03:15;8.43;;;3.05;;
59374;SDS011;45172;55.006;73.460;2023-05-21T04:05:42;5.40;;;3.28;;
59374;SDS011;45172;55.006;73.460;2023-05-21T04:08:09;6.50;;;2.92;;
59374;SDS011;45172;55.006;73.460;2023-05-21T04:10:35;9.02;;;2.30;;
59374;SDS011;45172;55.006;73.460;2023-05-21T04:13:01;7.85;;;2.50;;
59374;SDS011;45172;55.006;73.460;2023-05-21T04:15:27;3.47;;;2.47;;
59374;SDS011;45172;55.006;73.460;2023-05-21T04:17:53;5.90;;;2.17;;
59374;SDS011;45172;55.006;73.460;2023-05-21T04:20:19;5.28;;;2.40;;
59374;SDS011;45172;55.006;73.460;2023-05-21T04:22:45;3.33;;;2.25;;
59374;SDS011;45172;55.006;73.460;2023-05-21T04:25:11;5.18;;;2.20;;
59374;SDS011;45172;55.006;73.460;2023-05-21T04:27:38;2.95;;;2.22;;
59374;SDS011;45172;55.006;73.460;2023-05-21T04:30:04;3.08;;;2.15;;
59374;SDS011;45172;55.006;73.460;2023-05-21T04:32:31;2.65;;;2.00;;
59374;SDS011;45172;55.006;73.460;2023-05-21T04:34:59;7.95;;;2.63;;
59374;SDS011;45172;55.006;73.460;2023-05-21T04:37:26;12.15;;;2.30;;
59374;SDS011;45172;55.006;73.460;2023-05-21T04:39:56;6.68;;;2.20;;
59374;SDS011;45172;55.006;73.460;2023-05-21T04:42:23;2.55;;;2.08;;
59374;SDS011;45172;55.006;73.460;2023-05-21T04:44:49;5.13;;;1.80;;
59374;SDS011;45172;55.006;73.460;2023-05-21T04:47:15;2.97;;;1.90;;
59374;SDS011;45172;55.006;73.460;2023-05-21T04:49:43;3.38;;;1.80;;
59374;SDS011;45172;55.006;73.460;2023-05-21T04:52:09;8.10;;;2.15;;
59374;SDS011;45172;55.006;73.460;2023-05-21T04:54:35;4.07;;;2.28;;
59374;SDS011;45172;55.006;73.460;2023-05-21T04:57:03;3.65;;;2.78;;
59374;SDS011;45172;55.006;73.460;2023-05-21T04:59:30;4.65;;;2.72;;
59374;SDS011;45172;55.006;73.460;2023-05-21T05:01:56;6.38;;;2.42;;
59374;SDS011;45172;55.006;73.460;2023-05-21T05:04:22;3.60;;;2.50;;
59374;SDS011;45172;55.006;73.460;2023-05-21T05:06:48;14.55;;;9.57;;
59374;SDS011;45172;55.006;73.460;2023-05-21T05:09:16;10.60;;;4.13;;
59374;SDS011;45172;55.006;73.460;2023-05-21T05:11:43;6.72;;;6.07;;
59374;SDS011;45172;55.006;73.460;2023-05-21T05:14:09;4.95;;;2.58;;
59374;SDS011;45172;55.006;73.460;2023-05-21T05:16:35;5.75;;;3.30;;
59374;SDS011;45172;55.006;73.460;2023-05-21T05:19:01;6.00;;;2.85;;
59374;SDS011;45172;55.006;73.460;2023-05-21T05:21:27;7.78;;;2.60;;
59374;SDS011;45172;55.006;73.460;2023-05-21T05:23:53;5.20;;;2.75;;
59374;SDS011;45172;55.006;73.460;2023-05-21T05:26:19;6.53;;;3.20;;
59374;SDS011;45172;55.006;73.460;2023-05-21T05:28:45;6.78;;;3.08;;
59374;SDS011;45172;55.006;73.460;2023-05-21T05:31:11;3.85;;;3.00;;
59374;SDS011;45172;55.006;73.460;2023-05-21T05:33:37;6.47;;;3.00;;
59374;SDS011;45172;55.006;73.460;2023-05-21T05:36:04;7.43;;;5.05;;
59374;SDS011;45172;55.006;73.460;2023-05-21T05:38:30;8.52;;;5.35;;
59374;SDS011;45172;55.006;73.460;2023-05-21T05:40:56;5.93;;;3.15;;
59374;SDS011;45172;55.006;73.460;2023-05-21T05:43:23;5.82;;;4.55;;
59374;SDS011;45172;55.006;73.460;2023-05-21T05:45:50;9.20;;;3.70;;
59374;SDS011;45172;55.006;73.460;2023-05-21T05:48:18;4.80;;;4.00;;
59374;SDS011;45172;55.006;73.460;2023-05-21T05:50:44;7.45;;;4.00;;
59374;SDS011;45172;55.006;73.460;2023-05-21T05:53:10;6.25;;;3.17;;
59374;SDS011;45172;55.006;73.460;2023-05-21T05:55:38;4.95;;;3.17;;
59374;SDS011;45172;55.006;73.460;2023-05-21T05:58:04;5.20;;;3.40;;
59374;SDS011;45172;55.006;73.460;2023-05-21T06:00:31;4.15;;;3.30;;
59374;SDS011;45172;55.006;73.460;2023-05-21T06:02:57;9.38;;;3.20;;
59374;SDS011;45172;55.006;73.460;2023-05-21T06:05:23;3.53;;;3.00;;
59374;SDS011;45172;55.006;73.460;2023-05-21T06:07:49;8.00;;;3.25;;
59374;SDS011;45172;55.006;73.460;2023-05-21T06:10:15;12.20;;;3.38;;
59374;SDS011;45172;55.006;73.460;2023-05-21T06:12:41;40.30;;;17.17;;
59374;SDS011;45172;55.006;73.460;2023-05-21T06:15:08;14.23;;;7.43;;
59374;SDS011;45172;55.006;73.460;2023-05-21T06:17:34;4.82;;;2.88;;
59374;SDS011;45172;55.006;73.460;2023-05-21T06:20:00;7.53;;;3.03;;
59374;SDS011;45172;55.006;73.460;2023-05-21T06:22:28;3.80;;;2.80;;
59374;SDS011;45172;55.006;73.460;2023-05-21T06:24:54;11.02;;;5.40;;
59374;SDS011;45172;55.006;73.460;2023-05-21T06:27:20;12.57;;;10.00;;
59374;SDS011;45172;55.006;73.460;2023-05-21T06:29:46;16.25;;;8.75;;
59374;SDS011;45172;55.006;73.460;2023-05-21T06:32:12;51.67;;;32.05;;
59374;SDS011;45172;55.006;73.460;2023-05-21T06:34:38;59.20;;;41.15;;
59374;SDS011;45172;55.006;73.460;2023-05-21T06:37:04;12.35;;;6.05;;
59374;SDS011;45172;55.006;73.460;2023-05-21T06:39:30;11.98;;;9.43;;
59374;SDS011;45172;55.006;73.460;2023-05-21T06:41:56;12.23;;;7.72;;
59374;SDS011;45172;55.006;73.460;2023-05-21T06:44:23;5.22;;;4.20;;
59374;SDS011;45172;55.006;73.460;2023-05-21T06:46:49;8.45;;;6.20;;
59374;SDS011;45172;55.006;73.460;2023-05-21T06:49:15;7.30;;;4.47;;
59374;SDS011;45172;55.006;73.460;2023-05-21T06:51:41;4.20;;;3.08;;
59374;SDS011;45172;55.006;73.460;2023-05-21T06:54:07;3.72;;;2.90;;
59374;SDS011;45172;55.006;73.460;2023-05-21T06:56:33;6.57;;;3.28;;
59374;SDS011;45172;55.006;73.460;2023-05-21T06:58:59;4.57;;;3.00;;
59374;SDS011;45172;55.006;73.460;2023-05-21T07:01:26;5.80;;;3.25;;
59374;SDS011;45172;55.006;73.460;2023-05-21T07:03:53;7.10;;;4.20;;
59374;SDS011;45172;55.006;73.460;2023-05-21T07:06:19;7.68;;;3.10;;
59374;SDS011;45172;55.006;73.460;2023-05-21T07:08:46;3.38;;;2.97;;
59374;SDS011;45172;55.006;73.460;2023-05-21T07:11:14;7.20;;;3.40;;
59374;SDS011;45172;55.006;73.460;2023-05-21T07:13:40;19.02;;;2.92;;
59374;SDS011;45172;55.006;73.460;2023-05-21T07:16:06;4.80;;;2.53;;
59374;SDS011;45172;55.006;73.460;2023-05-21T07:18:32;5.13;;;2.70;;
59374;SDS011;45172;55.006;73.460;2023-05-21T07:20:59;2.50;;;2.30;;
59374;SDS011;45172;55.006;73.460;2023-05-21T07:23:25;6.30;;;3.00;;
59374;SDS011;45172;55.006;73.460;2023-05-21T07:25:51;12.90;;;2.97;;
59374;SDS011;45172;55.006;73.460;2023-05-21T07:28:18;6.75;;;3.20;;
59374;SDS011;45172;55.006;73.460;2023-05-21T07:30:44;23.42;;;3.63;;
59374;SDS011;45172;55.006;73.460;2023-05-21T07:33:11;8.23;;;3.97;;
59374;SDS011;45172;55.006;73.460;2023-05-21T07:35:37;4.45;;;2.50;;
59374;SDS011;45172;55.006;73.460;2023-05-21T07:38:03;4.93;;;2.47;;
59374;SDS011;45172;55.006;73.460;2023-05-21T07:40:29;54.67;;;37.90;;
59374;SDS011;45172;55.006;73.460;2023-05-21T07:42:57;30.05;;;3.80;;
59374;SDS011;45172;55.006;73.460;2023-05-21T07:45:23;8.55;;;2.65;;
59374;SDS011;45172;55.006;73.460;2023-05-21T07:47:49;7.78;;;3.40;;
59374;SDS011;45172;55.006;73.460;2023-05-21T07:50:16;4.72;;;2.97;;
59374;SDS011;45172;55.006;73.460;2023-05-21T07:52:42;11.05;;;3.15;;
59374;SDS011;45172;55.006;73.460;2023-05-21T07:55:08;6.63;;;3.20;;
59374;SDS011;45172;55.006;73.460;2023-05-21T07:57:34;6.63;;;3.00;;
59374;SDS011;45172;55.006;73.460;2023-05-21T08:00:01;3.65;;;2.20;;
59374;SDS011;45172;55.006;73.460;2023-05-21T08:02:29;3.67;;;2.55;;
59374;SDS011;45172;55.006;73.460;2023-05-21T08:04:55;5.72;;;2.65;;
59374;SDS011;45172;55.006;73.460;2023-05-21T08:07:22;8.75;;;6.50;;
59374;SDS011;45172;55.006;73.460;2023-05-21T08:09:50;2.72;;;2.33;;
59374;SDS011;45172;55.006;73.460;2023-05-21T08:12:15;13.55;;;3.25;;
59374;SDS011;45172;55.006;73.460;2023-05-21T08:14:43;5.35;;;2.88;;
59374;SDS011;45172;55.006;73.460;2023-05-21T08:17:09;3.88;;;2.85;;
59374;SDS011;45172;55.006;73.460;2023-05-21T08:19:36;25.75;;;3.00;;
59374;SDS011;45172;55.006;73.460;2023-05-21T08:22:03;4.20;;;2.83;;
59374;SDS011;45172;55.006;73.460;2023-05-21T08:24:31;14.20;;;3.28;;
59374;SDS011;45172;55.006;73.460;2023-05-21T08:26:57;9.23;;;2.70;;
59374;SDS011;45172;55.006;73.460;2023-05-21T08:29:23;8.10;;;2.65;;
59374;SDS011;45172;55.006;73.460;2023-05-21T08:31:49;8.50;;;3.78;;
59374;SDS011;45172;55.006;73.460;2023-05-21T08:34:16;3.33;;;2.97;;
59374;SDS011;45172;55.006;73.460;2023-05-21T08:36:43;11.75;;;3.00;;
59374;SDS011;45172;55.006;73.460;2023-05-21T08:39:10;5.60;;;2.72;;
59374;SDS011;45172;55.006;73.460;2023-05-21T08:41:39;6.32;;;2.75;;
59374;SDS011;45172;55.006;73.460;2023-05-21T08:44:10;11.82;;;4.60;;
59374;SDS011;45172;55.006;73.460;2023-05-21T08:46:38;6.93;;;5.13;;
59374;SDS011;45172;55.006;73.460;2023-05-21T08:49:06;9.38;;;3.65;;
59374;SDS011;45172;55.006;73.460;2023-05-21T08:51:36;5.45;;;2.47;;
59374;SDS011;45172;55.006;73.460;2023-05-21T08:54:04;8.80;;;2.88;;
59374;SDS011;45172;55.006;73.460;2023-05-21T08:56:32;3.92;;;2.85;;
59374;SDS011;45172;55.006;73.460;2023-05-21T08:58:59;8.68;;;2.35;;
59374;SDS011;45172;55.006;73.460;2023-05-21T09:01:26;3.78;;;2.83;;
59374;SDS011;45172;55.006;73.460;2023-05-21T09:03:53;4.65;;;2.45;;
59374;SDS011;45172;55.006;73.460;2023-05-21T09:06:22;14.57;;;3.13;;
59374;SDS011;45172;55.006;73.460;2023-05-21T09:08:56;9.70;;;2.72;;
59374;SDS011;45172;55.006;73.460;2023-05-21T09:11:27;12.15;;;4.70;;
59374;SDS011;45172;55.006;73.460;2023-05-21T09:13:54;5.72;;;2.63;;
59374;SDS011;45172;55.006;73.460;2023-05-21T09:16:20;13.40;;;7.97;;
59374;SDS011;45172;55.006;73.460;2023-05-21T09:18:47;10.50;;;5.10;;
59374;SDS011;45172;55.006;73.460;2023-05-21T09:21:24;6.40;;;2.53;;
59374;SDS011;45172;55.006;73.460;2023-05-21T09:23:55;6.07;;;1.90;;
59374;SDS011;45172;55.006;73.460;2023-05-21T09:26:22;3.70;;;2.25;;
59374;SDS011;45172;55.006;73.460;2023-05-21T09:28:55;5.63;;;2.83;;
59374;SDS011;45172;55.006;73.460;2023-05-21T09:31:24;7.78;;;4.18;;
59374;SDS011;45172;55.006;73.460;2023-05-21T09:33:51;6.82;;;3.78;;
59374;SDS011;45172;55.006;73.460;2023-05-21T09:36:21;9.68;;;4.20;;
59374;SDS011;45172;55.006;73.460;2023-05-21T09:38:47;12.27;;;3.30;;
59374;SDS011;45172;55.006;73.460;2023-05-21T09:41:16;12.80;;;5.43;;
59374;SDS011;45172;55.006;73.460;2023-05-21T09:43:42;11.93;;;4.22;;
59374;SDS011;45172;55.006;73.460;2023-05-21T09:46:10;8.77;;;2.67;;
59374;SDS011;45172;55.006;73.460;2023-05-21T09:48:40;6.35;;;2.70;;
59374;SDS011;45172;55.006;73.460;2023-05-21T09:51:14;8.60;;;2.50;;
59374;SDS011;45172;55.006;73.460;2023-05-21T09:53:44;7.50;;;1.95;;
59374;SDS011;45172;55.006;73.460;2023-05-21T09:56:21;11.88;;;2.50;;
59374;SDS011;45172;55.006;73.460;2023-05-21T09:58:52;11.00;;;2.53;;
59374;SDS011;45172;55.006;73.460;2023-05-21T10:01:19;3.67;;;2.30;;
59374;SDS011;45172;55.006;73.460;2023-05-21T10:03:47;8.35;;;2.55;;
59374;SDS011;45172;55.006;73.460;2023-05-21T10:06:17;3.38;;;2.67;;
59374;SDS011;45172;55.006;73.460;2023-05-21T10:08:46;13.20;;;3.42;;
59374;SDS011;45172;55.006;73.460;2023-05-21T10:11:17;14.63;;;4.30;;
59374;SDS011;45172;55.006;73.460;2023-05-21T10:13:47;4.35;;;2.40;;
59374;SDS011;45172;55.006;73.460;2023-05-21T10:16:20;7.10;;;3.25;;
59374;SDS011;45172;55.006;73.460;2023-05-21T10:18:47;7.20;;;5.30;;
59374;SDS011;45172;55.006;73.460;2023-05-21T10:21:14;13.10;;;4.95;;
59374;SDS011;45172;55.006;73.460;2023-05-21T10:23:41;37.58;;;23.48;;
59374;SDS011;45172;55.006;73.460;2023-05-21T10:26:08;29.88;;;20.20;;
59374;SDS011;45172;55.006;73.460;2023-05-21T10:28:35;25.25;;;18.48;;
59374;SDS011;45172;55.006;73.460;2023-05-21T10:31:02;16.33;;;9.40;;
59374;SDS011;45172;55.006;73.460;2023-05-21T10:33:28;10.32;;;3.58;;
59374;SDS011;45172;55.006;73.460;2023-05-21T10:35:56;14.73;;;4.55;;
59374;SDS011;45172;55.006;73.460;2023-05-21T10:38:24;8.85;;;2.75;;
59374;SDS011;45172;55.006;73.460;2023-05-21T10:40:52;21.92;;;16.38;;
59374;SDS011;45172;55.006;73.460;2023-05-21T10:43:22;7.68;;;3.05;;
59374;SDS011;45172;55.006;73.460;2023-05-21T10:46:22;15.90;;;4.90;;
59374;SDS011;45172;55.006;73.460;2023-05-21T11:00:35;12.32;;;4.82;;
59374;SDS011;45172;55.006;73.460;2023-05-21T11:03:14;26.70;;;9.95;;
59374;SDS011;45172;55.006;73.460;2023-05-21T11:05:50;23.45;;;5.22;;
59374;SDS011;45172;55.006;73.460;2023-05-21T11:08:18;11.52;;;3.80;;
59374;SDS011;45172;55.006;73.460;2023-05-21T11:11:01;8.95;;;2.80;;
59374;SDS011;45172;55.006;73.460;2023-05-21T11:13:28;5.63;;;2.88;;
59374;SDS011;45172;55.006;73.460;2023-05-21T11:16:16;3.75;;;2.35;;
59374;SDS011;45172;55.006;73.460;2023-05-21T11:21:14;10.70;;;2.60;;
59374;SDS011;45172;55.006;73.460;2023-05-21T11:23:55;14.20;;;3.70;;
59374;SDS011;45172;55.006;73.460;2023-05-21T11:26:26;9.55;;;3.50;;
59374;SDS011;45172;55.006;73.460;2023-05-21T11:31:29;11.48;;;4.20;;
59374;SDS011;45172;55.006;73.460;2023-05-21T11:34:22;6.35;;;2.20;;
59374;SDS011;45172;55.006;73.460;2023-05-21T11:39:52;200.07;;;147.27;;
59374;SDS011;45172;55.006;73.460;2023-05-21T11:44:56;10.25;;;4.45;;
59374;SDS011;45172;55.006;73.460;2023-05-21T11:47:26;7.00;;;4.30;;
59374;SDS011;45172;55.006;73.460;2023-05-21T11:49:54;22.42;;;5.78;;
59374;SDS011;45172;55.006;73.460;2023-05-21T11:52:21;8.70;;;4.60;;
59374;SDS011;45172;55.006;73.460;2023-05-21T11:54:50;21.65;;;5.03;;
59374;SDS011;45172;55.006;73.460;2023-05-21T11:57:19;5.32;;;2.63;;
59374;SDS011;45172;55.006;73.460;2023-05-21T11:59:46;10.55;;;4.78;;
59374;SDS011;45172;55.006;73.460;2023-05-21T12:02:14;7.68;;;2.60;;
59374;SDS011;45172;55.006;73.460;2023-05-21T12:04:41;21.65;;;3.38;;
59374;SDS011;45172;55.006;73.460;2023-05-21T12:07:09;6.82;;;2.65;;
59374;SDS011;45172;55.006;73.460;2023-05-21T12:12:07;7.18;;;2.40;;
59374;SDS011;45172;55.006;73.460;2023-05-21T12:14:34;5.13;;;2.20;;
59374;SDS011;45172;55.006;73.460;2023-05-21T12:17:03;4.93;;;2.38;;
59374;SDS011;45172;55.006;73.460;2023-05-21T12:19:32;7.60;;;2.35;;
59374;SDS011;45172;55.006;73.460;2023-05-21T12:22:00;7.40;;;2.60;;
59374;SDS011;45172;55.006;73.460;2023-05-21T12:24:27;11.80;;;3.20;;
59374;SDS011;45172;55.006;73.460;2023-05-21T12:26:54;9.60;;;2.80;;
59374;SDS011;45172;55.006;73.460;2023-05-21T12:29:26;13.13;;;2.97;;
59374;SDS011;45172;55.006;73.460;2023-05-21T12:31:57;30.40;;;15.60;;
59374;SDS011;45172;55.006;73.460;2023-05-21T12:34:40;9.55;;;3.30;;
59374;SDS011;45172;55.006;73.460;2023-05-21T12:39:47;11.43;;;4.80;;
59374;SDS011;45172;55.006;73.460;2023-05-21T12:42:14;16.38;;;4.18;;
59374;SDS011;45172;55.006;73.460;2023-05-21T12:44:44;5.53;;;2.60;;
59374;SDS011;45172;55.006;73.460;2023-05-21T12:47:12;5.93;;;3.30;;
59374;SDS011;45172;55.006;73.460;2023-05-21T12:49:40;7.50;;;3.08;;
59374;SDS011;45172;55.006;73.460;2023-05-21T12:52:08;8.65;;;3.50;;
59374;SDS011;45172;55.006;73.460;2023-05-21T12:54:39;9.45;;;3.20;;
59374;SDS011;45172;55.006;73.460;2023-05-21T12:57:08;13.00;;;2.85;;
59374;SDS011;45172;55.006;73.460;2023-05-21T12:59:42;11.57;;;4.38;;
59374;SDS011;45172;55.006;73.460;2023-05-21T13:02:30;10.93;;;4.32;;
59374;SDS011;45172;55.006;73.460;2023-05-21T13:04:58;7.05;;;4.25;;
59374;SDS011;45172;55.006;73.460;2023-05-21T13:07:27;11.63;;;3.38;;
59374;SDS011;45172;55.006;73.460;2023-05-21T13:09:56;10.25;;;2.65;;
59374;SDS011;45172;55.006;73.460;2023-05-21T13:12:22;6.90;;;3.95;;
59374;SDS011;45172;55.006;73.460;2023-05-21T13:14:50;14.88;;;6.28;;
59374;SDS011;45172;55.006;73.460;2023-05-21T13:17:21;20.83;;;12.73;;
59374;SDS011;45172;55.006;73.460;2023-05-21T13:20:07;13.45;;;3.45;;
59374;SDS011;45172;55.006;73.460;2023-05-21T13:22:40;9.90;;;6.05;;
59374;SDS011;45172;55.006;73.460;2023-05-21T13:25:15;24.02;;;14.02;;
59374;SDS011;45172;55.006;73.460;2023-05-21T13:27:44;10.63;;;5.15;;
59374;SDS011;45172;55.006;73.460;2023-05-21T13:30:11;17.98;;;5.50;;
59374;SDS011;45172;55.006;73.460;2023-05-21T13:32:37;7.10;;;3.30;;
59374;SDS011;45172;55.006;73.460;2023-05-21T13:35:05;9.43;;;4.35;;
59374;SDS011;45172;55.006;73.460;2023-05-21T13:37:32;14.48;;;4.75;;
59374;SDS011;45172;55.006;73.460;2023-05-21T13:40:05;16.27;;;5.68;;
59374;SDS011;45172;55.006;73.460;2023-05-21T13:42:33;17.20;;;7.10;;
59374;SDS011;45172;55.006;73.460;2023-05-21T13:44:59;23.85;;;10.50;;
59374;SDS011;45172;55.006;73.460;2023-05-21T13:47:26;43.40;;;13.30;;
59374;SDS011;45172;55.006;73.460;2023-05-21T13:49:52;64.10;;;34.00;;
59374;SDS011;45172;55.006;73.460;2023-05-21T13:52:18;61.80;;;35.30;;
59374;SDS011;45172;55.006;73.460;2023-05-21T13:54:44;49.05;;;13.45;;
59374;SDS011;45172;55.006;73.460;2023-05-21T13:57:10;58.15;;;14.15;;
59374;SDS011;45172;55.006;73.460;2023-05-21T13:59:37;37.30;;;12.43;;
59374;SDS011;45172;55.006;73.460;2023-05-21T14:02:05;42.63;;;15.65;;
59374;SDS011;45172;55.006;73.460;2023-05-21T14:04:33;45.60;;;25.30;;
59374;SDS011;45172;55.006;73.460;2023-05-21T14:06:59;48.13;;;27.23;;
59374;SDS011;45172;55.006;73.460;2023-05-21T14:09:26;47.20;;;28.02;;
59374;SDS011;45172;55.006;73.460;2023-05-21T14:11:52;64.95;;;28.70;;
59374;SDS011;45172;55.006;73.460;2023-05-21T14:14:19;195.88;;;22.38;;
59374;SDS011;45172;55.006;73.460;2023-05-21T14:16:46;163.43;;;20.48;;
59374;SDS011;45172;55.006;73.460;2023-05-21T14:19:12;136.68;;;16.85;;
59374;SDS011;45172;55.006;73.460;2023-05-21T14:21:40;84.00;;;18.13;;
59374;SDS011;45172;55.006;73.460;2023-05-21T14:24:06;60.40;;;13.07;;
59374;SDS011;45172;55.006;73.460;2023-05-21T14:26:32;62.67;;;17.52;;
59374;SDS011;45172;55.006;73.460;2023-05-21T14:28:58;48.90;;;17.45;;
59374;SDS011;45172;55.006;73.460;2023-05-21T14:31:24;67.57;;;16.95;;
59374;SDS011;45172;55.006;73.460;2023-05-21T14:33:51;78.95;;;17.70;;
59374;SDS011;45172;55.006;73.460;2023-05-21T14:36:17;136.63;;;19.20;;
59374;SDS011;45172;55.006;73.460;2023-05-21T14:38:43;135.57;;;19.85;;
59374;SDS011;45172;55.006;73.460;2023-05-21T14:41:11;158.65;;;30.88;;
59374;SDS011;45172;55.006;73.460;2023-05-21T14:43:36;106.28;;;32.60;;
59374;SDS011;45172;55.006;73.460;2023-05-21T14:46:04;96.35;;;22.27;;
59374;SDS011;45172;55.006;73.460;2023-05-21T14:48:30;77.78;;;22.80;;
59374;SDS011;45172;55.006;73.460;2023-05-21T14:50:56;113.63;;;27.02;;
59374;SDS011;45172;55.006;73.460;2023-05-21T14:53:22;135.05;;;26.70;;
59374;SDS011;45172;55.006;73.460;2023-05-21T14:55:48;117.78;;;32.53;;
59374;SDS011;45172;55.006;73.460;2023-05-21T14:58:14;138.50;;;33.00;;
59374;SDS011;45172;55.006;73.460;2023-05-21T15:00:40;94.95;;;27.83;;
59374;SDS011;45172;55.006;73.460;2023-05-21T15:03:06;118.55;;;37.28;;